Westfield, Wisconsin
Current Conditions -  °F | °C
As of 10:26 AM on Monday 24 Nov 2014 (Local Time) from KY50 Reporting Station
Haze Haze  
Wind Chill: 30°   Ceiling: 900
Heat Index: 37°   Visibility: 3mi
Dew Point: 37°   Wind: 12mph
Humidity: 100%   Direction: 300°WNW
Pressure: 29.13"   Gusts: 21mph
Location:  43.88°N, 89.49°W
Report Text: KY50 241626Z AUTO 30010G18KT 3SM BR OVC009 03/03 A2913 RMK AO2 TSNO CIG 007V013
Loading
Personal Weather Stations






























Interactive Weather Map New forecast layout! Learn more

10-Day Weather Forecast

Advertisements
Track Severe Weather on mobile